sensor_id;sensor_type;location;lat;lon;timestamp;temperature;humidity
12504;DHT22;6316;48.118;-1.690;2022-12-18T00:02:16;-1.00;99.90
12504;DHT22;6316;48.118;-1.690;2022-12-18T00:04:42;-1.00;99.90
12504;DHT22;6316;48.118;-1.690;2022-12-18T00:07:08;-1.00;99.90
12504;DHT22;6316;48.118;-1.690;2022-12-18T00:09:33;-1.00;99.90
12504;DHT22;6316;48.118;-1.690;2022-12-18T00:11:59;-1.00;99.90
12504;DHT22;6316;48.118;-1.690;2022-12-18T00:14:25;-1.10;99.90
12504;DHT22;6316;48.118;-1.690;2022-12-18T00:16:50;-1.10;99.90
12504;DHT22;6316;48.118;-1.690;2022-12-18T00:19:16;-1.10;99.90
12504;DHT22;6316;48.118;-1.690;2022-12-18T00:21:43;-1.10;99.90
12504;DHT22;6316;48.118;-1.690;2022-12-18T00:24:10;-1.10;99.90
12504;DHT22;6316;48.118;-1.690;2022-12-18T00:26:37;-1.10;99.90
12504;DHT22;6316;48.118;-1.690;2022-12-18T00:29:06;-1.10;99.90
12504;DHT22;6316;48.118;-1.690;2022-12-18T00:31:32;-1.10;99.90
12504;DHT22;6316;48.118;-1.690;2022-12-18T00:33:59;-1.10;99.90
12504;DHT22;6316;48.118;-1.690;2022-12-18T00:36:27;-1.10;99.90
12504;DHT22;6316;48.118;-1.690;2022-12-18T00:38:54;-1.10;99.90
12504;DHT22;6316;48.118;-1.690;2022-12-18T00:41:21;-1.10;99.90
12504;DHT22;6316;48.118;-1.690;2022-12-18T00:44:06;-1.10;99.90
12504;DHT22;6316;48.118;-1.690;2022-12-18T00:46:33;-1.10;99.90
12504;DHT22;6316;48.118;-1.690;2022-12-18T00:48:59;-1.10;99.90
12504;DHT22;6316;48.118;-1.690;2022-12-18T00:51:25;-1.10;99.90
12504;DHT22;6316;48.118;-1.690;2022-12-18T00:53:52;-1.10;99.90
12504;DHT22;6316;48.118;-1.690;2022-12-18T00:56:18;-1.10;99.90
12504;DHT22;6316;48.118;-1.690;2022-12-18T00:58:43;-1.10;99.90
12504;DHT22;6316;48.118;-1.690;2022-12-18T01:01:09;-1.10;99.90
12504;DHT22;6316;48.118;-1.690;2022-12-18T01:03:35;-1.10;99.90
12504;DHT22;6316;48.118;-1.690;2022-12-18T01:06:06;-1.10;99.90
12504;DHT22;6316;48.118;-1.690;2022-12-18T01:08:32;-1.10;99.90
12504;DHT22;6316;48.118;-1.690;2022-12-18T01:10:58;-1.10;99.90
12504;DHT22;6316;48.118;-1.690;2022-12-18T01:13:24;-1.00;99.90
12504;DHT22;6316;48.118;-1.690;2022-12-18T01:15:50;-1.10;99.90
12504;DHT22;6316;48.118;-1.690;2022-12-18T01:18:16;-1.10;99.90
12504;DHT22;6316;48.118;-1.690;2022-12-18T01:20:41;-1.00;99.90
12504;DHT22;6316;48.118;-1.690;2022-12-18T01:23:07;-1.10;99.90
12504;DHT22;6316;48.118;-1.690;2022-12-18T01:25:35;-1.10;99.90
12504;DHT22;6316;48.118;-1.690;2022-12-18T01:28:00;-1.10;99.90
12504;DHT22;6316;48.118;-1.690;2022-12-18T01:30:27;-1.10;99.90
12504;DHT22;6316;48.118;-1.690;2022-12-18T01:32:52;-1.10;99.90
12504;DHT22;6316;48.118;-1.690;2022-12-18T01:35:18;-1.10;99.90
12504;DHT22;6316;48.118;-1.690;2022-12-18T01:37:44;-1.10;99.90
12504;DHT22;6316;48.118;-1.690;2022-12-18T01:40:10;-1.10;99.90
12504;DHT22;6316;48.118;-1.690;2022-12-18T01:42:36;-1.10;99.90
12504;DHT22;6316;48.118;-1.690;2022-12-18T01:47:47;-1.10;99.90
12504;DHT22;6316;48.118;-1.690;2022-12-18T01:52:45;-1.10;99.90
12504;DHT22;6316;48.118;-1.690;2022-12-18T01:55:13;-1.10;99.90
12504;DHT22;6316;48.118;-1.690;2022-12-18T01:57:41;-1.10;99.90
12504;DHT22;6316;48.118;-1.690;2022-12-18T02:00:11;-1.10;99.90
12504;DHT22;6316;48.118;-1.690;2022-12-18T02:02:37;-1.10;99.90
12504;DHT22;6316;48.118;-1.690;2022-12-18T02:05:04;-1.10;99.90
12504;DHT22;6316;48.118;-1.690;2022-12-18T02:13:46;-1.00;99.90
12504;DHT22;6316;48.118;-1.690;2022-12-18T02:18:58;-1.10;99.90
12504;DHT22;6316;48.118;-1.690;2022-12-18T02:24:35;-1.10;99.90
12504;DHT22;6316;48.118;-1.690;2022-12-18T02:27:03;-1.10;99.90
12504;DHT22;6316;48.118;-1.690;2022-12-18T02:29:46;-1.10;99.90
12504;DHT22;6316;48.118;-1.690;2022-12-18T02:32:17;-1.10;99.90
12504;DHT22;6316;48.118;-1.690;2022-12-18T02:34:44;-1.10;99.90
12504;DHT22;6316;48.118;-1.690;2022-12-18T02:37:14;-1.10;99.90
12504;DHT22;6316;48.118;-1.690;2022-12-18T02:39:43;-1.10;99.90
12504;DHT22;6316;48.118;-1.690;2022-12-18T02:42:10;-1.00;99.90
12504;DHT22;6316;48.118;-1.690;2022-12-18T02:44:45;-1.00;99.90
12504;DHT22;6316;48.118;-1.690;2022-12-18T02:47:12;-1.00;99.90
12504;DHT22;6316;48.118;-1.690;2022-12-18T03:00:31;-1.00;99.90
12504;DHT22;6316;48.118;-1.690;2022-12-18T03:03:25;-1.00;99.90
12504;DHT22;6316;48.118;-1.690;2022-12-18T03:05:56;-1.00;99.90
12504;DHT22;6316;48.118;-1.690;2022-12-18T03:08:27;-1.00;99.90
12504;DHT22;6316;48.118;-1.690;2022-12-18T03:11:03;-1.00;99.90
12504;DHT22;6316;48.118;-1.690;2022-12-18T03:16:06;-1.00;99.90
12504;DHT22;6316;48.118;-1.690;2022-12-18T03:18:38;-0.90;99.90
12504;DHT22;6316;48.118;-1.690;2022-12-18T03:21:08;-0.90;99.90
12504;DHT22;6316;48.118;-1.690;2022-12-18T03:23:39;-0.90;99.90
12504;DHT22;6316;48.118;-1.690;2022-12-18T03:26:09;-0.90;99.90
12504;DHT22;6316;48.118;-1.690;2022-12-18T03:28:44;-0.80;99.90
12504;DHT22;6316;48.118;-1.690;2022-12-18T03:31:12;-0.80;99.90
12504;DHT22;6316;48.118;-1.690;2022-12-18T03:36:34;-0.70;99.90
12504;DHT22;6316;48.118;-1.690;2022-12-18T03:38:59;-0.70;99.90
12504;DHT22;6316;48.118;-1.690;2022-12-18T03:41:46;-0.60;99.90
12504;DHT22;6316;48.118;-1.690;2022-12-18T03:47:16;-0.60;99.90
12504;DHT22;6316;48.118;-1.690;2022-12-18T03:49:59;-0.60;99.90
12504;DHT22;6316;48.118;-1.690;2022-12-18T03:54:58;-0.60;99.90
12504;DHT22;6316;48.118;-1.690;2022-12-18T03:57:26;-0.50;99.90
12504;DHT22;6316;48.118;-1.690;2022-12-18T03:59:57;-0.50;99.90
12504;DHT22;6316;48.118;-1.690;2022-12-18T04:02:25;-0.50;99.90
12504;DHT22;6316;48.118;-1.690;2022-12-18T04:04:53;-0.40;99.90
12504;DHT22;6316;48.118;-1.690;2022-12-18T04:07:23;-0.40;99.90
12504;DHT22;6316;48.118;-1.690;2022-12-18T04:09:50;-0.40;99.90
12504;DHT22;6316;48.118;-1.690;2022-12-18T04:12:18;-0.30;99.90
12504;DHT22;6316;48.118;-1.690;2022-12-18T04:14:43;-0.30;99.90
12504;DHT22;6316;48.118;-1.690;2022-12-18T04:17:10;-0.30;99.90
12504;DHT22;6316;48.118;-1.690;2022-12-18T04:19:35;-0.30;99.90
12504;DHT22;6316;48.118;-1.690;2022-12-18T04:22:01;-0.20;99.90
12504;DHT22;6316;48.118;-1.690;2022-12-18T04:24:27;-0.20;99.90
12504;DHT22;6316;48.118;-1.690;2022-12-18T04:26:52;-0.30;99.90
12504;DHT22;6316;48.118;-1.690;2022-12-18T04:29:18;-0.20;99.90
12504;DHT22;6316;48.118;-1.690;2022-12-18T04:31:43;-0.20;99.90
12504;DHT22;6316;48.118;-1.690;2022-12-18T04:34:09;-0.20;99.90
12504;DHT22;6316;48.118;-1.690;2022-12-18T04:36:35;-0.30;99.90
12504;DHT22;6316;48.118;-1.690;2022-12-18T04:39:01;-0.20;99.90
12504;DHT22;6316;48.118;-1.690;2022-12-18T04:41:26;-0.20;99.90
12504;DHT22;6316;48.118;-1.690;2022-12-18T04:43:52;-0.20;99.90
12504;DHT22;6316;48.118;-1.690;2022-12-18T04:46:17;-0.20;99.90
12504;DHT22;6316;48.118;-1.690;2022-12-18T04:48:45;-0.20;99.90
12504;DHT22;6316;48.118;-1.690;2022-12-18T04:51:11;-0.20;99.90
12504;DHT22;6316;48.118;-1.690;2022-12-18T04:53:37;-0.20;99.90
12504;DHT22;6316;48.118;-1.690;2022-12-18T04:58:30;-0.20;99.90
12504;DHT22;6316;48.118;-1.690;2022-12-18T05:00:55;-0.10;99.90
12504;DHT22;6316;48.118;-1.690;2022-12-18T05:03:21;-0.10;99.90
12504;DHT22;6316;48.118;-1.690;2022-12-18T05:05:50;-0.10;99.90
12504;DHT22;6316;48.118;-1.690;2022-12-18T05:08:16;-0.10;99.90
12504;DHT22;6316;48.118;-1.690;2022-12-18T05:10:41;-0.10;99.90
12504;DHT22;6316;48.118;-1.690;2022-12-18T05:13:07;-0.10;99.90
12504;DHT22;6316;48.118;-1.690;2022-12-18T05:15:33;-0.10;99.90
12504;DHT22;6316;48.118;-1.690;2022-12-18T05:18:00;0.00;99.90
12504;DHT22;6316;48.118;-1.690;2022-12-18T05:20:26;0.00;99.90
12504;DHT22;6316;48.118;-1.690;2022-12-18T05:22:52;0.00;99.90
12504;DHT22;6316;48.118;-1.690;2022-12-18T05:25:18;0.10;99.90
12504;DHT22;6316;48.118;-1.690;2022-12-18T05:27:44;0.10;99.90
12504;DHT22;6316;48.118;-1.690;2022-12-18T05:30:11;0.10;99.90
12504;DHT22;6316;48.118;-1.690;2022-12-18T05:32:37;0.10;99.90
12504;DHT22;6316;48.118;-1.690;2022-12-18T05:35:04;0.10;99.90
12504;DHT22;6316;48.118;-1.690;2022-12-18T05:37:30;0.20;99.90
12504;DHT22;6316;48.118;-1.690;2022-12-18T05:39:56;0.20;99.90
12504;DHT22;6316;48.118;-1.690;2022-12-18T05:42:21;0.20;99.90
12504;DHT22;6316;48.118;-1.690;2022-12-18T05:44:47;0.20;99.90
12504;DHT22;6316;48.118;-1.690;2022-12-18T05:47:13;0.20;99.90
12504;DHT22;6316;48.118;-1.690;2022-12-18T05:49:39;0.20;99.90
12504;DHT22;6316;48.118;-1.690;2022-12-18T05:52:04;0.20;99.90
12504;DHT22;6316;48.118;-1.690;2022-12-18T05:54:30;0.20;99.90
12504;DHT22;6316;48.118;-1.690;2022-12-18T05:56:56;0.20;99.90
12504;DHT22;6316;48.118;-1.690;2022-12-18T05:59:22;0.20;99.90
12504;DHT22;6316;48.118;-1.690;2022-12-18T06:01:48;0.20;99.90
12504;DHT22;6316;48.118;-1.690;2022-12-18T06:04:14;0.20;99.90
12504;DHT22;6316;48.118;-1.690;2022-12-18T06:06:40;0.20;99.90
12504;DHT22;6316;48.118;-1.690;2022-12-18T06:09:05;0.20;99.90
12504;DHT22;6316;48.118;-1.690;2022-12-18T06:11:35;0.30;99.90
12504;DHT22;6316;48.118;-1.690;2022-12-18T06:14:01;0.30;99.90
12504;DHT22;6316;48.118;-1.690;2022-12-18T06:16:28;0.30;99.90
12504;DHT22;6316;48.118;-1.690;2022-12-18T06:18:59;0.40;99.90
12504;DHT22;6316;48.118;-1.690;2022-12-18T06:21:25;0.30;99.90
12504;DHT22;6316;48.118;-1.690;2022-12-18T06:23:51;0.40;99.90
12504;DHT22;6316;48.118;-1.690;2022-12-18T06:26:17;0.40;99.90
12504;DHT22;6316;48.118;-1.690;2022-12-18T06:28:42;0.40;99.90
12504;DHT22;6316;48.118;-1.690;2022-12-18T06:31:08;0.40;99.90
12504;DHT22;6316;48.118;-1.690;2022-12-18T06:33:34;0.50;99.90
12504;DHT22;6316;48.118;-1.690;2022-12-18T06:36:03;0.50;99.90
12504;DHT22;6316;48.118;-1.690;2022-12-18T06:38:28;0.50;99.90
12504;DHT22;6316;48.118;-1.690;2022-12-18T06:40:54;0.50;99.90
12504;DHT22;6316;48.118;-1.690;2022-12-18T06:43:20;0.60;99.90
12504;DHT22;6316;48.118;-1.690;2022-12-18T06:45:45;0.60;99.90
12504;DHT22;6316;48.118;-1.690;2022-12-18T06:48:14;0.60;99.90
12504;DHT22;6316;48.118;-1.690;2022-12-18T06:50:42;0.60;99.90
12504;DHT22;6316;48.118;-1.690;2022-12-18T06:53:08;0.60;99.90
12504;DHT22;6316;48.118;-1.690;2022-12-18T06:55:33;0.60;99.90
12504;DHT22;6316;48.118;-1.690;2022-12-18T06:57:59;0.70;99.90
12504;DHT22;6316;48.118;-1.690;2022-12-18T07:00:24;0.70;99.90
12504;DHT22;6316;48.118;-1.690;2022-12-18T07:02:50;0.70;99.90
12504;DHT22;6316;48.118;-1.690;2022-12-18T07:05:16;0.70;99.90
12504;DHT22;6316;48.118;-1.690;2022-12-18T07:07:41;0.70;99.90
12504;DHT22;6316;48.118;-1.690;2022-12-18T07:10:07;0.70;99.90
12504;DHT22;6316;48.118;-1.690;2022-12-18T07:12:33;0.70;99.90
12504;DHT22;6316;48.118;-1.690;2022-12-18T07:14:58;0.80;99.90
12504;DHT22;6316;48.118;-1.690;2022-12-18T07:17:24;0.80;99.90
12504;DHT22;6316;48.118;-1.690;2022-12-18T07:19:50;0.80;99.90
12504;DHT22;6316;48.118;-1.690;2022-12-18T07:22:15;0.80;99.90
12504;DHT22;6316;48.118;-1.690;2022-12-18T07:24:41;0.90;99.90
12504;DHT22;6316;48.118;-1.690;2022-12-18T07:27:06;0.90;99.90
12504;DHT22;6316;48.118;-1.690;2022-12-18T07:29:32;0.90;99.90
12504;DHT22;6316;48.118;-1.690;2022-12-18T07:31:57;0.90;99.90
12504;DHT22;6316;48.118;-1.690;2022-12-18T07:34:23;0.90;99.90
12504;DHT22;6316;48.118;-1.690;2022-12-18T07:36:49;0.90;99.90
12504;DHT22;6316;48.118;-1.690;2022-12-18T07:39:14;0.90;99.90
12504;DHT22;6316;48.118;-1.690;2022-12-18T07:41:40;0.90;99.90
12504;DHT22;6316;48.118;-1.690;2022-12-18T07:44:11;0.90;99.90
12504;DHT22;6316;48.118;-1.690;2022-12-18T07:46:37;0.90;99.90
12504;DHT22;6316;48.118;-1.690;2022-12-18T07:49:03;1.00;99.90
12504;DHT22;6316;48.118;-1.690;2022-12-18T07:51:29;1.00;99.90
12504;DHT22;6316;48.118;-1.690;2022-12-18T07:53:54;1.00;99.90
12504;DHT22;6316;48.118;-1.690;2022-12-18T07:56:20;1.10;99.90
12504;DHT22;6316;48.118;-1.690;2022-12-18T07:58:46;1.00;99.90
12504;DHT22;6316;48.118;-1.690;2022-12-18T08:01:12;1.10;99.90
12504;DHT22;6316;48.118;-1.690;2022-12-18T08:03:39;1.10;99.90
12504;DHT22;6316;48.118;-1.690;2022-12-18T08:06:07;1.10;99.90
12504;DHT22;6316;48.118;-1.690;2022-12-18T08:08:34;1.10;99.90
12504;DHT22;6316;48.118;-1.690;2022-12-18T08:10:59;1.20;99.90
12504;DHT22;6316;48.118;-1.690;2022-12-18T08:13:25;1.20;99.90
12504;DHT22;6316;48.118;-1.690;2022-12-18T08:15:59;1.20;99.90
12504;DHT22;6316;48.118;-1.690;2022-12-18T08:18:25;1.20;99.90
12504;DHT22;6316;48.118;-1.690;2022-12-18T08:20:51;1.20;99.90
12504;DHT22;6316;48.118;-1.690;2022-12-18T08:23:16;1.20;99.90
12504;DHT22;6316;48.118;-1.690;2022-12-18T08:25:42;1.30;99.90
12504;DHT22;6316;48.118;-1.690;2022-12-18T08:28:07;1.30;99.90
12504;DHT22;6316;48.118;-1.690;2022-12-18T08:30:33;1.30;99.90
12504;DHT22;6316;48.118;-1.690;2022-12-18T08:32:59;1.30;99.90
12504;DHT22;6316;48.118;-1.690;2022-12-18T08:35:24;1.30;99.90
12504;DHT22;6316;48.118;-1.690;2022-12-18T08:37:50;1.30;99.90
12504;DHT22;6316;48.118;-1.690;2022-12-18T08:40:15;1.30;99.90
12504;DHT22;6316;48.118;-1.690;2022-12-18T08:42:41;1.30;99.90
12504;DHT22;6316;48.118;-1.690;2022-12-18T08:45:25;1.40;99.90
12504;DHT22;6316;48.118;-1.690;2022-12-18T08:47:51;1.40;99.90
12504;DHT22;6316;48.118;-1.690;2022-12-18T08:50:17;1.40;99.90
12504;DHT22;6316;48.118;-1.690;2022-12-18T08:52:43;1.40;99.90
12504;DHT22;6316;48.118;-1.690;2022-12-18T08:55:09;1.40;99.90
12504;DHT22;6316;48.118;-1.690;2022-12-18T08:57:35;1.50;99.90
12504;DHT22;6316;48.118;-1.690;2022-12-18T09:00:00;1.50;99.90
12504;DHT22;6316;48.118;-1.690;2022-12-18T09:02:26;1.50;99.90
12504;DHT22;6316;48.118;-1.690;2022-12-18T09:04:51;1.50;99.90
12504;DHT22;6316;48.118;-1.690;2022-12-18T09:07:17;1.60;99.90
12504;DHT22;6316;48.118;-1.690;2022-12-18T09:09:43;1.60;99.90
12504;DHT22;6316;48.118;-1.690;2022-12-18T09:12:08;1.60;99.90
12504;DHT22;6316;48.118;-1.690;2022-12-18T09:14:34;1.70;99.90
12504;DHT22;6316;48.118;-1.690;2022-12-18T09:17:00;1.70;99.90
12504;DHT22;6316;48.118;-1.690;2022-12-18T09:19:26;1.70;99.90
12504;DHT22;6316;48.118;-1.690;2022-12-18T09:21:52;1.80;99.90
12504;DHT22;6316;48.118;-1.690;2022-12-18T09:24:18;1.80;99.90
12504;DHT22;6316;48.118;-1.690;2022-12-18T09:26:44;1.80;99.90
12504;DHT22;6316;48.118;-1.690;2022-12-18T09:29:09;1.90;99.90
12504;DHT22;6316;48.118;-1.690;2022-12-18T09:31:36;1.90;99.90
12504;DHT22;6316;48.118;-1.690;2022-12-18T09:34:01;1.90;99.90
12504;DHT22;6316;48.118;-1.690;2022-12-18T09:36:27;2.00;99.90
12504;DHT22;6316;48.118;-1.690;2022-12-18T09:38:53;2.00;99.90
12504;DHT22;6316;48.118;-1.690;2022-12-18T09:44:10;2.00;99.90
12504;DHT22;6316;48.118;-1.690;2022-12-18T09:46:40;2.00;99.90
12504;DHT22;6316;48.118;-1.690;2022-12-18T09:49:13;2.10;99.90
12504;DHT22;6316;48.118;-1.690;2022-12-18T09:51:47;2.10;99.90
12504;DHT22;6316;48.118;-1.690;2022-12-18T09:54:20;2.10;99.90
12504;DHT22;6316;48.118;-1.690;2022-12-18T09:56:46;2.20;99.90
12504;DHT22;6316;48.118;-1.690;2022-12-18T09:59:29;2.20;99.90
12504;DHT22;6316;48.118;-1.690;2022-12-18T10:01:56;2.20;99.90
12504;DHT22;6316;48.118;-1.690;2022-12-18T10:04:23;2.30;99.90
12504;DHT22;6316;48.118;-1.690;2022-12-18T10:07:01;2.30;99.90
12504;DHT22;6316;48.118;-1.690;2022-12-18T10:09:55;2.30;99.90
12504;DHT22;6316;48.118;-1.690;2022-12-18T10:12:33;2.30;99.90
12504;DHT22;6316;48.118;-1.690;2022-12-18T10:15:21;2.30;99.90
12504;DHT22;6316;48.118;-1.690;2022-12-18T10:18:01;2.30;99.90
12504;DHT22;6316;48.118;-1.690;2022-12-18T10:20:40;2.30;99.90
12504;DHT22;6316;48.118;-1.690;2022-12-18T10:28:25;2.40;99.90
12504;DHT22;6316;48.118;-1.690;2022-12-18T10:30:51;2.40;99.90
12504;DHT22;6316;48.118;-1.690;2022-12-18T10:33:30;2.40;99.90
12504;DHT22;6316;48.118;-1.690;2022-12-18T10:35:57;2.40;99.90
12504;DHT22;6316;48.118;-1.690;2022-12-18T10:38:28;2.40;99.90
12504;DHT22;6316;48.118;-1.690;2022-12-18T10:43:42;2.50;99.90
12504;DHT22;6316;48.118;-1.690;2022-12-18T10:46:14;2.50;99.90
12504;DHT22;6316;48.118;-1.690;2022-12-18T10:48:49;2.50;99.90
12504;DHT22;6316;48.118;-1.690;2022-12-18T10:51:25;2.40;99.90
12504;DHT22;6316;48.118;-1.690;2022-12-18T10:54:05;2.50;99.90
12504;DHT22;6316;48.118;-1.690;2022-12-18T10:56:33;2.50;99.90
12504;DHT22;6316;48.118;-1.690;2022-12-18T10:59:11;2.50;99.90
12504;DHT22;6316;48.118;-1.690;2022-12-18T11:01:53;2.60;99.90
12504;DHT22;6316;48.118;-1.690;2022-12-18T11:04:30;2.60;99.90
12504;DHT22;6316;48.118;-1.690;2022-12-18T11:07:03;2.60;99.90
12504;DHT22;6316;48.118;-1.690;2022-12-18T11:09:31;2.60;99.90
12504;DHT22;6316;48.118;-1.690;2022-12-18T11:12:00;2.60;99.90
12504;DHT22;6316;48.118;-1.690;2022-12-18T11:14:31;2.70;99.90
12504;DHT22;6316;48.118;-1.690;2022-12-18T11:16:59;2.60;99.90
12504;DHT22;6316;48.118;-1.690;2022-12-18T11:19:36;2.70;99.90
12504;DHT22;6316;48.118;-1.690;2022-12-18T11:22:21;2.70;99.90
12504;DHT22;6316;48.118;-1.690;2022-12-18T11:24:55;2.70;99.90
12504;DHT22;6316;48.118;-1.690;2022-12-18T11:27:21;2.70;99.90
12504;DHT22;6316;48.118;-1.690;2022-12-18T11:29:50;2.80;99.90
12504;DHT22;6316;48.118;-1.690;2022-12-18T11:32:33;2.80;99.90
12504;DHT22;6316;48.118;-1.690;2022-12-18T11:36:03;2.80;99.90
12504;DHT22;6316;48.118;-1.690;2022-12-18T11:40:47;2.90;99.90
12504;DHT22;6316;48.118;-1.690;2022-12-18T11:43:21;2.90;99.90
12504;DHT22;6316;48.118;-1.690;2022-12-18T11:45:58;3.00;99.90
12504;DHT22;6316;48.118;-1.690;2022-12-18T11:48:32;3.00;99.90
12504;DHT22;6316;48.118;-1.690;2022-12-18T11:51:03;3.00;99.90
12504;DHT22;6316;48.118;-1.690;2022-12-18T11:53:30;3.00;99.90
12504;DHT22;6316;48.118;-1.690;2022-12-18T11:56:39;3.10;99.90
12504;DHT22;6316;48.118;-1.690;2022-12-18T11:59:29;3.10;99.90
12504;DHT22;6316;48.118;-1.690;2022-12-18T12:07:50;3.10;99.90
12504;DHT22;6316;48.118;-1.690;2022-12-18T12:13:05;3.20;99.90
12504;DHT22;6316;48.118;-1.690;2022-12-18T12:23:49;3.40;99.90
12504;DHT22;6316;48.118;-1.690;2022-12-18T12:38:34;3.60;99.90
12504;DHT22;6316;48.118;-1.690;2022-12-18T12:41:10;3.60;99.90
12504;DHT22;6316;48.118;-1.690;2022-12-18T12:44:00;3.60;99.90
12504;DHT22;6316;48.118;-1.690;2022-12-18T12:46:27;3.70;99.90
12504;DHT22;6316;48.118;-1.690;2022-12-18T12:48:57;3.70;99.90
12504;DHT22;6316;48.118;-1.690;2022-12-18T12:51:36;3.80;99.90
12504;DHT22;6316;48.118;-1.690;2022-12-18T12:54:05;3.80;99.90
12504;DHT22;6316;48.118;-1.690;2022-12-18T12:56:50;3.80;99.90
12504;DHT22;6316;48.118;-1.690;2022-12-18T12:59:27;3.80;99.90
12504;DHT22;6316;48.118;-1.690;2022-12-18T13:02:28;3.90;99.90
12504;DHT22;6316;48.118;-1.690;2022-12-18T13:04:57;3.90;99.90
12504;DHT22;6316;48.118;-1.690;2022-12-18T13:07:32;4.00;99.90
12504;DHT22;6316;48.118;-1.690;2022-12-18T13:13:06;4.20;99.90
12504;DHT22;6316;48.118;-1.690;2022-12-18T13:15:47;4.20;99.90
12504;DHT22;6316;48.118;-1.690;2022-12-18T13:18:17;4.30;99.90
12504;DHT22;6316;48.118;-1.690;2022-12-18T13:21:20;4.30;99.90
12504;DHT22;6316;48.118;-1.690;2022-12-18T13:23:47;4.40;99.90
12504;DHT22;6316;48.118;-1.690;2022-12-18T13:31:12;4.50;99.90
12504;DHT22;6316;48.118;-1.690;2022-12-18T13:33:42;4.50;99.90
12504;DHT22;6316;48.118;-1.690;2022-12-18T13:38:47;4.50;99.90
12504;DHT22;6316;48.118;-1.690;2022-12-18T13:41:26;4.40;99.90
12504;DHT22;6316;48.118;-1.690;2022-12-18T13:44:21;4.50;99.90
12504;DHT22;6316;48.118;-1.690;2022-12-18T13:46:50;4.50;99.90
12504;DHT22;6316;48.118;-1.690;2022-12-18T13:51:55;4.50;99.90
12504;DHT22;6316;48.118;-1.690;2022-12-18T13:54:37;4.60;99.90
12504;DHT22;6316;48.118;-1.690;2022-12-18T13:57:05;4.60;99.90
12504;DHT22;6316;48.118;-1.690;2022-12-18T13:59:39;4.60;99.90
12504;DHT22;6316;48.118;-1.690;2022-12-18T14:02:25;4.60;99.90
12504;DHT22;6316;48.118;-1.690;2022-12-18T14:04:52;4.60;99.90
12504;DHT22;6316;48.118;-1.690;2022-12-18T14:07:24;4.70;99.90
12504;DHT22;6316;48.118;-1.690;2022-12-18T14:09:55;4.70;99.90
12504;DHT22;6316;48.118;-1.690;2022-12-18T14:12:32;4.70;99.90
12504;DHT22;6316;48.118;-1.690;2022-12-18T14:20:18;4.80;99.90
12504;DHT22;6316;48.118;-1.690;2022-12-18T14:22:45;4.80;99.90
12504;DHT22;6316;48.118;-1.690;2022-12-18T14:30:40;4.90;99.90
12504;DHT22;6316;48.118;-1.690;2022-12-18T14:33:10;5.00;99.90
12504;DHT22;6316;48.118;-1.690;2022-12-18T14:35:39;5.00;99.90
12504;DHT22;6316;48.118;-1.690;2022-12-18T14:41:00;5.10;99.90
12504;DHT22;6316;48.118;-1.690;2022-12-18T14:43:28;5.20;99.90
12504;DHT22;6316;48.118;-1.690;2022-12-18T14:45:54;5.20;99.90
12504;DHT22;6316;48.118;-1.690;2022-12-18T14:48:25;5.30;99.90
12504;DHT22;6316;48.118;-1.690;2022-12-18T14:51:02;5.30;99.90
12504;DHT22;6316;48.118;-1.690;2022-12-18T14:53:39;5.30;99.90
12504;DHT22;6316;48.118;-1.690;2022-12-18T14:56:27;5.30;99.90
12504;DHT22;6316;48.118;-1.690;2022-12-18T14:58:59;5.30;99.90
12504;DHT22;6316;48.118;-1.690;2022-12-18T15:01:31;5.40;99.90
12504;DHT22;6316;48.118;-1.690;2022-12-18T15:04:00;5.40;99.90
12504;DHT22;6316;48.118;-1.690;2022-12-18T15:06:27;5.40;99.90
12504;DHT22;6316;48.118;-1.690;2022-12-18T15:08:53;5.50;99.90
12504;DHT22;6316;48.118;-1.690;2022-12-18T15:11:44;5.50;99.90
12504;DHT22;6316;48.118;-1.690;2022-12-18T15:16:51;5.50;99.90
12504;DHT22;6316;48.118;-1.690;2022-12-18T15:19:18;5.60;99.90
12504;DHT22;6316;48.118;-1.690;2022-12-18T15:21:44;5.60;99.90
12504;DHT22;6316;48.118;-1.690;2022-12-18T15:24:23;5.60;99.90
12504;DHT22;6316;48.118;-1.690;2022-12-18T15:26:49;5.60;99.90
12504;DHT22;6316;48.118;-1.690;2022-12-18T15:29:20;5.70;99.90
12504;DHT22;6316;48.118;-1.690;2022-12-18T15:31:58;5.70;99.90
12504;DHT22;6316;48.118;-1.690;2022-12-18T15:34:24;5.70;99.90
12504;DHT22;6316;48.118;-1.690;2022-12-18T15:36:51;5.80;99.90
12504;DHT22;6316;48.118;-1.690;2022-12-18T15:39:17;5.80;99.90
12504;DHT22;6316;48.118;-1.690;2022-12-18T15:41:43;5.80;99.90
12504;DHT22;6316;48.118;-1.690;2022-12-18T15:44:29;5.80;99.90
12504;DHT22;6316;48.118;-1.690;2022-12-18T15:46:54;5.90;99.90
12504;DHT22;6316;48.118;-1.690;2022-12-18T15:49:20;5.90;99.90
12504;DHT22;6316;48.118;-1.690;2022-12-18T15:51:52;5.90;99.90
12504;DHT22;6316;48.118;-1.690;2022-12-18T15:54:19;5.90;99.90
12504;DHT22;6316;48.118;-1.690;2022-12-18T15:57:08;6.00;99.90
12504;DHT22;6316;48.118;-1.690;2022-12-18T15:59:50;6.00;99.90
12504;DHT22;6316;48.118;-1.690;2022-12-18T16:02:19;6.10;99.90
12504;DHT22;6316;48.118;-1.690;2022-12-18T16:04:45;6.10;99.90
12504;DHT22;6316;48.118;-1.690;2022-12-18T16:07:12;6.10;99.90
12504;DHT22;6316;48.118;-1.690;2022-12-18T16:09:37;6.10;99.90
12504;DHT22;6316;48.118;-1.690;2022-12-18T16:12:05;6.20;99.90
12504;DHT22;6316;48.118;-1.690;2022-12-18T16:14:31;6.20;99.90
12504;DHT22;6316;48.118;-1.690;2022-12-18T16:17:01;6.20;99.90
12504;DHT22;6316;48.118;-1.690;2022-12-18T16:19:28;6.30;99.90
12504;DHT22;6316;48.118;-1.690;2022-12-18T16:21:55;6.30;99.90
12504;DHT22;6316;48.118;-1.690;2022-12-18T16:24:24;6.30;99.90
12504;DHT22;6316;48.118;-1.690;2022-12-18T16:26:51;6.40;99.90
12504;DHT22;6316;48.118;-1.690;2022-12-18T16:29:18;6.40;99.90
12504;DHT22;6316;48.118;-1.690;2022-12-18T16:31:44;6.30;99.90
12504;DHT22;6316;48.118;-1.690;2022-12-18T16:34:30;6.40;99.90
12504;DHT22;6316;48.118;-1.690;2022-12-18T16:36:57;6.40;99.90
12504;DHT22;6316;48.118;-1.690;2022-12-18T16:39:24;6.40;99.90
12504;DHT22;6316;48.118;-1.690;2022-12-18T16:41:49;6.50;99.90
12504;DHT22;6316;48.118;-1.690;2022-12-18T16:44:15;6.50;99.90
12504;DHT22;6316;48.118;-1.690;2022-12-18T16:46:41;6.50;99.90
12504;DHT22;6316;48.118;-1.690;2022-12-18T16:49:14;6.50;99.90
12504;DHT22;6316;48.118;-1.690;2022-12-18T16:51:41;6.50;99.90
12504;DHT22;6316;48.118;-1.690;2022-12-18T16:54:06;6.60;99.90
12504;DHT22;6316;48.118;-1.690;2022-12-18T16:56:32;6.60;99.90
12504;DHT22;6316;48.118;-1.690;2022-12-18T16:59:00;6.60;99.90
12504;DHT22;6316;48.118;-1.690;2022-12-18T17:01:27;6.70;99.90
12504;DHT22;6316;48.118;-1.690;2022-12-18T17:04:02;6.70;99.90
12504;DHT22;6316;48.118;-1.690;2022-12-18T17:06:31;6.70;99.90
12504;DHT22;6316;48.118;-1.690;2022-12-18T17:08:58;6.80;99.90
12504;DHT22;6316;48.118;-1.690;2022-12-18T17:11:26;6.80;99.90
12504;DHT22;6316;48.118;-1.690;2022-12-18T17:13:51;6.80;99.90
12504;DHT22;6316;48.118;-1.690;2022-12-18T17:16:17;6.80;99.90
12504;DHT22;6316;48.118;-1.690;2022-12-18T17:18:43;6.80;99.90
12504;DHT22;6316;48.118;-1.690;2022-12-18T17:21:10;6.90;99.90
12504;DHT22;6316;48.118;-1.690;2022-12-18T17:23:36;6.90;99.90
12504;DHT22;6316;48.118;-1.690;2022-12-18T17:26:03;6.90;99.90
12504;DHT22;6316;48.118;-1.690;2022-12-18T17:28:31;6.90;99.90
12504;DHT22;6316;48.118;-1.690;2022-12-18T17:30:57;7.00;99.90
12504;DHT22;6316;48.118;-1.690;2022-12-18T17:33:23;7.00;99.90
12504;DHT22;6316;48.118;-1.690;2022-12-18T17:35:49;7.00;99.90
12504;DHT22;6316;48.118;-1.690;2022-12-18T17:38:15;7.00;99.90
12504;DHT22;6316;48.118;-1.690;2022-12-18T17:40:41;7.00;99.90
12504;DHT22;6316;48.118;-1.690;2022-12-18T17:43:08;7.10;99.90
12504;DHT22;6316;48.118;-1.690;2022-12-18T17:45:35;7.10;99.90
12504;DHT22;6316;48.118;-1.690;2022-12-18T17:48:02;7.10;99.90
12504;DHT22;6316;48.118;-1.690;2022-12-18T17:50:28;7.20;99.90